createdAt,value
2022-12-04T00:01:30.286Z,101015.00
2022-12-04T00:03:59.680Z,101013.31
2022-12-04T00:06:27.728Z,101006.28
2022-12-04T00:08:58.190Z,100999.25
2022-12-04T00:11:28.140Z,101016.78
2022-12-04T00:13:59.058Z,101011.50
2022-12-04T00:16:29.932Z,101006.38
2022-12-04T00:19:00.097Z,101005.44
2022-12-04T00:21:27.148Z,101003.78
2022-12-04T00:23:54.707Z,100993.34
2022-12-04T00:26:25.083Z,100986.19
2022-12-04T00:28:56.022Z,100983.53
2022-12-04T00:31:32.213Z,100989.59
2022-12-04T00:34:00.562Z,100988.84
2022-12-04T00:36:35.100Z,100984.47
2022-12-04T00:39:02.190Z,100978.31
2022-12-04T00:41:31.098Z,100973.19
2022-12-04T00:43:58.888Z,100973.13
2022-12-04T00:46:26.538Z,100965.25
2022-12-04T00:48:53.568Z,100952.13
2022-12-04T00:51:23.471Z,100962.53
2022-12-04T00:53:52.166Z,100961.63
2022-12-04T00:56:29.812Z,100953.81
2022-12-04T00:58:59.135Z,100959.16
2022-12-04T01:01:26.535Z,100960.94
2022-12-04T01:03:54.845Z,100947.78
2022-12-04T01:06:33.841Z,100952.69
2022-12-04T01:09:02.665Z,100958.91
2022-12-04T01:11:30.543Z,100949.47
2022-12-04T01:13:59.722Z,100952.88
2022-12-04T01:16:39.079Z,100955.53
2022-12-04T01:19:08.215Z,100951.91
2022-12-04T01:21:36.667Z,100936.19
2022-12-04T01:24:06.367Z,100926.66
2022-12-04T01:26:33.588Z,100918.78
2022-12-04T01:29:01.120Z,100914.44
2022-12-04T01:31:30.311Z,100912.84
2022-12-04T01:33:57.621Z,100902.28
2022-12-04T01:36:27.102Z,100898.75
2022-12-04T01:38:54.601Z,100896.84
2022-12-04T01:41:27.634Z,100902.16
2022-12-04T01:44:11.398Z,100902.25
2022-12-04T01:46:39.429Z,100896.03
2022-12-04T01:49:09.884Z,100901.34
2022-12-04T01:51:42.463Z,100895.09
2022-12-04T01:54:14.058Z,100889.75
2022-12-04T01:56:53.509Z,100891.53
2022-12-04T01:59:24.567Z,100888.09
2022-12-04T02:02:03.605Z,100882.91
2022-12-04T02:04:37.076Z,100872.44
2022-12-04T02:07:06.458Z,100876.03
2022-12-04T02:09:37.774Z,100862.00
2022-12-04T02:12:30.436Z,100858.59
2022-12-04T02:15:21.851Z,100849.78
2022-12-04T02:18:17.955Z,100848.84
2022-12-04T02:20:54.087Z,100841.06
2022-12-04T02:23:37.281Z,100836.69
2022-12-04T02:26:13.223Z,100834.13
2022-12-04T02:28:53.755Z,100834.06
2022-12-04T02:31:32.588Z,100826.19
2022-12-04T02:34:30.422Z,100819.88
2022-12-04T02:37:05.497Z,100811.19
2022-12-04T02:39:41.566Z,100806.78
2022-12-04T02:42:19.298Z,100800.91
2022-12-04T02:45:08.533Z,100800.72
2022-12-04T02:47:42.075Z,100799.16
2022-12-04T02:50:16.330Z,100799.25
2022-12-04T02:52:48.065Z,100801.78
2022-12-04T02:55:21.041Z,100797.41
2022-12-04T02:57:51.240Z,100789.53
2022-12-04T03:00:19.090Z,100782.56
2022-12-04T03:02:57.107Z,100794.91
2022-12-04T03:05:34.996Z,100795.72
2022-12-04T03:08:07.804Z,100788.72
2022-12-04T03:10:41.260Z,100795.72
2022-12-04T03:13:15.833Z,100789.56
2022-12-04T03:16:04.100Z,100794.13
2022-12-04T03:18:40.103Z,100792.13
2022-12-04T03:21:22.612Z,100798.97
2022-12-04T03:24:03.773Z,100798.06
2022-12-04T03:26:45.634Z,100800.75
2022-12-04T03:29:23.787Z,100790.13
2022-12-04T03:32:07.381Z,100797.00
2022-12-04T03:34:46.920Z,100810.94
2022-12-04T03:37:23.379Z,100827.38
2022-12-04T03:40:06.149Z,100796.63
2022-12-04T03:42:38.828Z,100785.31
2022-12-04T03:45:18.822Z,100791.66
2022-12-04T03:48:05.308Z,100779.81
2022-12-04T03:51:08.083Z,100779.00
2022-12-04T03:54:27.246Z,100775.34
2022-12-04T03:57:03.732Z,100777.78
2022-12-04T03:59:56.592Z,100792.75
2022-12-04T04:02:29.288Z,100788.53
2022-12-04T04:05:10.347Z,100775.38
2022-12-04T04:07:47.902Z,100787.47
2022-12-04T04:10:19.977Z,100790.03
2022-12-04T04:13:21.545Z,100793.47
2022-12-04T04:16:11.726Z,100805.63
2022-12-04T04:19:01.400Z,100816.09
2022-12-04T04:21:56.581Z,100804.72
2022-12-04T04:24:46.748Z,100808.25
2022-12-04T04:27:14.016Z,100798.78
2022-12-04T04:29:47.932Z,100798.78
2022-12-04T04:32:37.001Z,100795.34
2022-12-04T04:35:28.019Z,100794.47
2022-12-04T04:38:11.111Z,100786.66
2022-12-04T04:41:00.922Z,100792.84
2022-12-04T04:44:05.110Z,100792.75
2022-12-04T04:46:41.978Z,100797.81
2022-12-04T04:49:14.535Z,100784.88
2022-12-04T04:51:44.981Z,100777.06
2022-12-04T04:54:16.624Z,100779.59
2022-12-04T04:56:48.509Z,100784.34
2022-12-04T04:59:20.779Z,100773.78
2022-12-04T05:01:51.808Z,100775.66
2022-12-04T05:04:22.027Z,100778.28
2022-12-04T05:06:49.754Z,100770.41
2022-12-04T05:09:25.633Z,100769.44
2022-12-04T05:11:52.422Z,100745.66
2022-12-04T05:14:21.816Z,100734.44
2022-12-04T05:16:51.713Z,100741.13
2022-12-04T05:19:45.802Z,100730.72
2022-12-04T05:22:23.962Z,100730.88
2022-12-04T05:24:54.253Z,100730.00
2022-12-04T05:27:27.991Z,100741.50
2022-12-04T05:29:59.639Z,100738.19
2022-12-04T05:32:33.402Z,100738.06
2022-12-04T05:35:00.225Z,100746.00
2022-12-04T05:37:29.503Z,100756.44
2022-12-04T05:39:56.582Z,100765.13
2022-12-04T05:42:25.390Z,100761.59
2022-12-04T05:44:52.218Z,100764.22
2022-12-04T05:47:19.069Z,100754.53
2022-12-04T05:49:49.758Z,100764.28
2022-12-04T05:52:25.819Z,100766.97
2022-12-04T05:54:55.611Z,100777.28
2022-12-04T05:57:25.448Z,100781.66
2022-12-04T05:59:52.796Z,100775.44
2022-12-04T06:02:19.925Z,100792.25
2022-12-04T06:04:50.404Z,100785.03
2022-12-04T06:07:22.929Z,100786.56
2022-12-04T06:09:52.635Z,100788.59
2022-12-04T06:12:22.149Z,100798.00
2022-12-04T06:14:50.189Z,100802.34
2022-12-04T06:17:22.482Z,100792.06
2022-12-04T06:20:07.906Z,100799.00
2022-12-04T06:22:37.831Z,100801.69
2022-12-04T06:25:18.277Z,100808.56
2022-12-04T06:28:01.570Z,100810.38
2022-12-04T06:30:30.771Z,100807.03
2022-12-04T06:33:00.124Z,100796.47
2022-12-04T06:35:31.827Z,100799.06
2022-12-04T06:38:00.700Z,100801.81
2022-12-04T06:40:28.299Z,100796.63
2022-12-04T06:42:55.188Z,100806.31
2022-12-04T06:45:25.946Z,100813.16
2022-12-04T06:48:09.852Z,100810.59
2022-12-04T06:50:39.223Z,100809.72
2022-12-04T06:53:08.991Z,100812.19
2022-12-04T06:55:38.907Z,100814.63
2022-12-04T06:58:05.849Z,100823.53
2022-12-04T07:00:45.919Z,100823.47
2022-12-04T07:03:12.979Z,100831.13
2022-12-04T07:05:39.906Z,100834.56
2022-12-04T07:08:15.779Z,100844.84
2022-12-04T07:10:45.763Z,100849.22
2022-12-04T07:13:19.857Z,100842.22
2022-12-04T07:15:46.671Z,100853.66
2022-12-04T07:18:22.355Z,100848.41
2022-12-04T07:20:57.450Z,100854.59
2022-12-04T07:23:29.921Z,100867.53
2022-12-04T07:25:56.872Z,100863.34
2022-12-04T07:28:33.461Z,100860.16
2022-12-04T07:31:12.456Z,100872.97
2022-12-04T07:34:00.574Z,100864.91
2022-12-04T07:36:31.162Z,100875.38
2022-12-04T07:38:58.347Z,100880.09
2022-12-04T07:41:28.768Z,100887.81
2022-12-04T07:44:00.981Z,100881.56
2022-12-04T07:46:29.081Z,100891.94
2022-12-04T07:48:57.523Z,100898.13
2022-12-04T07:51:26.733Z,100907.88
2022-12-04T07:54:03.228Z,100889.44
2022-12-04T07:56:31.206Z,100898.19
2022-12-04T07:58:59.729Z,100899.19
2022-12-04T08:01:28.542Z,100898.50
2022-12-04T08:04:00.647Z,100898.19
2022-12-04T08:06:29.670Z,100900.63
2022-12-04T08:08:57.661Z,100910.38
2022-12-04T08:11:27.566Z,100906.84
2022-12-04T08:14:01.473Z,100918.97
2022-12-04T08:16:30.755Z,100916.44
2022-12-04T08:18:59.601Z,100926.72
2022-12-04T08:21:30.811Z,100929.34
2022-12-04T08:23:58.998Z,100924.84
2022-12-04T08:26:28.463Z,100925.63
2022-12-04T08:28:57.027Z,100931.06
2022-12-04T08:31:31.137Z,100931.81
2022-12-04T08:34:02.065Z,100936.31
2022-12-04T08:36:29.039Z,100939.66
2022-12-04T08:38:56.931Z,100932.91
2022-12-04T08:41:26.385Z,100939.66
2022-12-04T08:43:56.071Z,100941.50
2022-12-04T08:46:28.351Z,100948.28
2022-12-04T08:48:56.125Z,100951.84
2022-12-04T08:51:29.210Z,100950.88
2022-12-04T08:53:59.172Z,100962.56
2022-12-04T08:56:28.098Z,100960.66
2022-12-04T08:58:56.226Z,100972.97
2022-12-04T09:01:27.197Z,100974.63
2022-12-04T09:03:55.268Z,100972.09
2022-12-04T09:06:25.610Z,100979.88
2022-12-04T09:08:54.886Z,100984.00
2022-12-04T09:11:25.389Z,100986.63
2022-12-04T09:13:53.436Z,100985.88
2022-12-04T09:16:24.463Z,100990.38
2022-12-04T09:18:52.035Z,100986.63
2022-12-04T09:21:20.806Z,100991.81
2022-12-04T09:23:57.862Z,100993.72
2022-12-04T09:26:33.044Z,100995.50
2022-12-04T09:29:14.574Z,100999.22
2022-12-04T09:31:47.471Z,101006.06
2022-12-04T09:34:19.823Z,101011.28
2022-12-04T09:36:50.715Z,101011.25
2022-12-04T09:39:18.011Z,101012.25
2022-12-04T09:42:05.777Z,101016.50
2022-12-04T09:44:45.284Z,101016.53
2022-12-04T09:47:53.248Z,101009.44
2022-12-04T09:50:40.159Z,101021.56
2022-12-04T09:53:32.232Z,101028.78
2022-12-04T09:56:08.210Z,101024.25
2022-12-04T09:58:56.275Z,101031.25
2022-12-04T10:01:29.629Z,101028.41
2022-12-04T10:04:02.574Z,101029.16
2022-12-04T10:07:05.935Z,101023.22
2022-12-04T10:09:51.777Z,101026.06
2022-12-04T10:12:58.305Z,101024.06
2022-12-04T10:15:28.878Z,101028.50
2022-12-04T10:18:37.512Z,101036.16
2022-12-04T10:21:25.138Z,101034.47
2022-12-04T10:24:16.594Z,101031.91
2022-12-04T10:26:50.521Z,101031.13
2022-12-04T10:29:33.462Z,101032.59
2022-12-04T10:32:25.469Z,101035.28
2022-12-04T10:35:00.121Z,101026.28
2022-12-04T10:37:48.547Z,101026.16
2022-12-04T10:40:29.096Z,101033.00
2022-12-04T10:43:29.699Z,101029.44
2022-12-04T10:45:56.644Z,101039.25
2022-12-04T10:48:35.595Z,101032.06
2022-12-04T10:51:04.742Z,101034.72
2022-12-04T10:53:45.836Z,101026.16
2022-12-04T10:56:31.652Z,101021.81
2022-12-04T10:59:10.594Z,101029.69
2022-12-04T11:01:42.016Z,101030.34
2022-12-04T11:04:31.280Z,101022.50
2022-12-04T11:07:35.342Z,101022.41
2022-12-04T11:10:09.670Z,101029.34
2022-12-04T11:12:42.612Z,101026.59
2022-12-04T11:15:25.919Z,101043.28
2022-12-04T11:17:53.016Z,101031.91
2022-12-04T11:20:28.324Z,101034.38
2022-12-04T11:22:58.096Z,101030.88
2022-12-04T11:25:44.600Z,101025.56
2022-12-04T11:28:44.551Z,101028.03
2022-12-04T11:31:24.728Z,101029.50
2022-12-04T11:34:07.872Z,101029.47
2022-12-04T11:36:42.630Z,101035.56
2022-12-04T11:39:20.871Z,101033.91
2022-12-04T11:42:11.901Z,101034.84
2022-12-04T11:44:48.172Z,101038.22
2022-12-04T11:47:28.363Z,101036.72
2022-12-04T11:50:14.492Z,101044.59
2022-12-04T11:53:18.056Z,101031.00
2022-12-04T11:56:17.048Z,101037.78
2022-12-04T11:59:09.309Z,101026.34
2022-12-04T12:02:07.970Z,101029.88
2022-12-04T12:04:51.613Z,101036.31
2022-12-04T12:08:02.091Z,101032.16
2022-12-04T12:10:44.967Z,101040.88
2022-12-04T12:13:33.298Z,101047.00
2022-12-04T12:16:10.601Z,101054.91
2022-12-04T12:19:25.498Z,101069.88
2022-12-04T12:22:07.377Z,101065.19
2022-12-04T12:25:00.325Z,101066.97
2022-12-04T12:27:44.180Z,101059.28
2022-12-04T12:30:27.513Z,101060.28
2022-12-04T12:33:48.189Z,101063.03
2022-12-04T12:36:28.113Z,101061.88
2022-12-04T12:39:01.731Z,101055.78
2022-12-04T12:41:46.590Z,101060.38
2022-12-04T12:44:36.212Z,101062.94
2022-12-04T12:47:22.251Z,101069.34
2022-12-04T12:50:19.358Z,101059.59
2022-12-04T12:52:52.004Z,101061.53
2022-12-04T12:55:36.210Z,101075.31
2022-12-04T12:58:32.235Z,101075.25
2022-12-04T13:01:37.075Z,101073.31
2022-12-04T13:04:47.594Z,101081.94
2022-12-04T13:07:37.076Z,101083.78
2022-12-04T13:10:13.314Z,101084.63
2022-12-04T13:13:31.786Z,101085.28
2022-12-04T13:16:08.362Z,101090.75
2022-12-04T13:18:56.143Z,101085.22
2022-12-04T13:21:52.116Z,101088.06
2022-12-04T13:24:51.300Z,101093.53
2022-12-04T13:27:36.100Z,101105.09
2022-12-04T13:30:39.562Z,101103.59
2022-12-04T13:33:41.720Z,101100.00
2022-12-04T13:36:50.324Z,101102.53
2022-12-04T13:40:17.910Z,101114.69
2022-12-04T13:42:58.137Z,101119.09
2022-12-04T13:45:42.723Z,101121.78
2022-12-04T13:48:44.479Z,101127.69
2022-12-04T13:51:20.027Z,101126.72
2022-12-04T13:54:09.468Z,101129.50
2022-12-04T13:56:42.495Z,101133.88
2022-12-04T13:59:28.417Z,101140.84
2022-12-04T14:02:21.588Z,101141.50
2022-12-04T14:05:10.620Z,101143.47
2022-12-04T14:07:59.203Z,101143.38
2022-12-04T14:10:41.674Z,101145.84
2022-12-04T14:13:28.005Z,101144.00
2022-12-04T14:16:32.529Z,101144.19
2022-12-04T14:19:07.591Z,101152.81
2022-12-04T14:21:50.291Z,101164.09
2022-12-04T14:24:39.303Z,101164.31
2022-12-04T14:27:37.505Z,101168.88
2022-12-04T14:30:04.970Z,101170.44
2022-12-04T14:32:35.910Z,101173.00
2022-12-04T14:35:03.733Z,101179.72
2022-12-04T14:37:36.739Z,101176.53
2022-12-04T14:40:07.795Z,101174.53
2022-12-04T14:42:42.163Z,101187.84
2022-12-04T14:45:44.240Z,101188.03
2022-12-04T14:48:41.223Z,101193.41
2022-12-04T14:51:42.883Z,101197.50
2022-12-04T14:54:34.134Z,101199.72
2022-12-04T14:57:23.691Z,101189.13
2022-12-04T14:59:56.467Z,101196.13
2022-12-04T15:02:46.060Z,101197.44
2022-12-04T15:05:30.812Z,101201.97
2022-12-04T15:08:06.121Z,101208.38
2022-12-04T15:10:54.338Z,101211.25
2022-12-04T15:13:52.584Z,101210.25
2022-12-04T15:16:23.517Z,101209.47
2022-12-04T15:18:58.077Z,101216.22
2022-12-04T15:21:39.102Z,101211.19
2022-12-04T15:24:10.778Z,101214.78
2022-12-04T15:26:38.758Z,101214.75
2022-12-04T15:29:23.153Z,101220.00
2022-12-04T15:31:59.695Z,101214.19
2022-12-04T15:34:38.198Z,101217.69
2022-12-04T15:37:23.892Z,101222.09
2022-12-04T15:39:57.601Z,101222.25
2022-12-04T15:42:35.328Z,101230.63
2022-12-04T15:45:08.193Z,101235.28
2022-12-04T15:48:04.287Z,101232.00
2022-12-04T15:50:31.815Z,101235.50
2022-12-04T15:53:28.338Z,101234.19
2022-12-04T15:55:59.182Z,101230.34
2022-12-04T15:58:34.762Z,101236.53
2022-12-04T16:01:08.935Z,101245.44
2022-12-04T16:03:44.371Z,101245.97
2022-12-04T16:06:28.851Z,101245.28
2022-12-04T16:09:26.059Z,101250.56
2022-12-04T16:12:19.416Z,101257.53
2022-12-04T16:14:46.176Z,101256.03
2022-12-04T16:17:20.493Z,101266.66
2022-12-04T16:19:50.115Z,101262.66
2022-12-04T16:22:29.453Z,101269.66
2022-12-04T16:25:01.083Z,101270.31
2022-12-04T16:27:28.018Z,101277.47
2022-12-04T16:29:54.820Z,101272.09
2022-12-04T16:32:28.762Z,101275.84
2022-12-04T16:34:56.060Z,101277.69
2022-12-04T16:37:23.551Z,101283.97
2022-12-04T16:39:51.108Z,101269.38
2022-12-04T16:42:27.964Z,101272.94
2022-12-04T16:44:59.366Z,101278.53
2022-12-04T16:47:28.822Z,101276.91
2022-12-04T16:49:56.065Z,101290.88
2022-12-04T16:52:27.598Z,101294.91
2022-12-04T16:54:55.118Z,101297.03
2022-12-04T16:57:24.356Z,101297.28
2022-12-04T16:59:51.843Z,101298.09
2022-12-04T17:02:29.918Z,101300.94
2022-12-04T17:04:58.241Z,101306.16
2022-12-04T17:07:28.239Z,101320.28
2022-12-04T17:09:59.097Z,101313.94
2022-12-04T17:12:35.858Z,101315.34
2022-12-04T17:15:05.485Z,101311.31
2022-12-04T17:17:38.568Z,101318.59
2022-12-04T17:20:24.435Z,101313.38
2022-12-04T17:22:52.672Z,101316.03
2022-12-04T17:25:20.273Z,101323.00
2022-12-04T17:27:58.644Z,101323.06
2022-12-04T17:30:34.337Z,101331.03
2022-12-04T17:33:07.121Z,101331.09
2022-12-04T17:35:44.158Z,101346.84
2022-12-04T17:38:11.149Z,101350.31
2022-12-04T17:40:38.570Z,101350.34
2022-12-04T17:43:08.757Z,101346.00
2022-12-04T17:45:41.642Z,101344.16
2022-12-04T17:48:11.663Z,101352.94
2022-12-04T17:50:51.093Z,101350.31
2022-12-04T17:53:28.998Z,101350.13
2022-12-04T17:55:56.139Z,101348.47
2022-12-04T17:58:23.122Z,101353.69
2022-12-04T18:01:06.798Z,101345.84
2022-12-04T18:03:40.000Z,101342.41
2022-12-04T18:06:22.701Z,101348.25
2022-12-04T18:08:51.440Z,101348.19
2022-12-04T18:11:44.297Z,101356.81
2022-12-04T18:14:19.340Z,101363.00
2022-12-04T18:16:50.959Z,101348.25
2022-12-04T18:19:23.842Z,101367.59
2022-12-04T18:21:54.622Z,101373.78
2022-12-04T18:24:25.799Z,101366.03
2022-12-04T18:26:52.717Z,101372.19
2022-12-04T18:29:24.954Z,101366.06
2022-12-04T18:31:55.864Z,101364.31
2022-12-04T18:34:25.342Z,101362.56
2022-12-04T18:36:59.518Z,101366.06
2022-12-04T18:39:28.124Z,101368.78
2022-12-04T18:41:58.725Z,101357.94
2022-12-04T18:44:28.554Z,101358.03
2022-12-04T18:47:02.319Z,101365.91
2022-12-04T18:49:30.503Z,101371.22
2022-12-04T18:52:09.315Z,101373.03
2022-12-04T18:54:50.791Z,101378.31
2022-12-04T18:57:17.871Z,101378.19
2022-12-04T18:59:44.832Z,101388.59
2022-12-04T19:02:12.078Z,101395.69
2022-12-04T19:04:47.124Z,101397.50
2022-12-04T19:07:18.932Z,101392.25
2022-12-04T19:12:36.727Z,101395.75
2022-12-04T19:15:04.236Z,101407.13
2022-12-04T19:17:31.216Z,101401.03
2022-12-04T19:19:58.982Z,101407.06
2022-12-04T19:22:26.440Z,101401.03
2022-12-04T19:24:53.594Z,101397.16
2022-12-04T19:27:20.557Z,101400.69
2022-12-04T19:29:48.183Z,101405.88
2022-12-04T19:32:15.315Z,101409.19
2022-12-04T19:34:42.531Z,101406.66
2022-12-04T19:37:09.685Z,101419.03
2022-12-04T19:39:36.673Z,101424.97
2022-12-04T19:42:05.878Z,101426.66
2022-12-04T19:44:52.246Z,101431.00
2022-12-04T19:47:22.019Z,101428.50
2022-12-04T19:49:49.010Z,101435.56
2022-12-04T19:52:16.585Z,101437.25
2022-12-04T19:54:45.827Z,101439.75
2022-12-04T19:57:17.810Z,101442.31
2022-12-04T19:59:52.657Z,101451.59
2022-12-04T20:02:31.069Z,101451.91
2022-12-04T20:05:07.041Z,101441.63
2022-12-04T20:07:38.115Z,101446.97
2022-12-04T20:10:20.440Z,101441.66
2022-12-04T20:12:50.666Z,101442.53
2022-12-04T20:15:21.359Z,101441.66
2022-12-04T20:17:52.940Z,101434.06
2022-12-04T20:20:24.252Z,101424.44
2022-12-04T20:23:03.471Z,101421.84
2022-12-04T20:25:32.006Z,101430.22
2022-12-04T20:28:14.639Z,101429.75
2022-12-04T20:30:41.984Z,101423.72
2022-12-04T20:33:09.005Z,101404.00
2022-12-04T20:35:52.569Z,101413.25
2022-12-04T20:38:35.048Z,101423.16
2022-12-04T20:41:09.828Z,101444.00
2022-12-04T20:43:42.720Z,101431.34
2022-12-04T20:46:25.987Z,101447.03
2022-12-04T20:48:56.556Z,101456.88
2022-12-04T20:51:31.378Z,101463.97
2022-12-04T20:53:59.549Z,101451.09
2022-12-04T20:56:33.339Z,101453.81
2022-12-04T20:59:10.357Z,101458.34
2022-12-04T21:01:37.716Z,101463.00
2022-12-04T21:04:05.271Z,101467.59
2022-12-04T21:06:43.366Z,101446.50
2022-12-04T21:09:20.312Z,101457.78
2022-12-04T21:11:57.657Z,101459.00
2022-12-04T21:14:49.699Z,101459.53
2022-12-04T21:17:23.320Z,101447.31
2022-12-04T21:19:52.007Z,101454.38
2022-12-04T21:22:20.463Z,101461.91
2022-12-04T21:24:47.475Z,101446.41
2022-12-04T21:27:20.786Z,101453.44
2022-12-04T21:29:48.949Z,101465.75
2022-12-04T21:32:16.372Z,101465.72
2022-12-04T21:34:43.242Z,101470.78
2022-12-04T21:37:11.282Z,101471.81
2022-12-04T21:39:43.460Z,101462.25
2022-12-04T21:42:29.257Z,101461.91
2022-12-04T21:44:57.413Z,101451.16
2022-12-04T21:47:32.432Z,101466.00
2022-12-04T21:50:02.929Z,101470.91
2022-12-04T21:52:39.063Z,101471.75
2022-12-04T21:55:06.424Z,101470.81
2022-12-04T21:57:43.680Z,101470.81
2022-12-04T22:00:21.876Z,101478.13
2022-12-04T22:02:52.191Z,101468.28
2022-12-04T22:05:19.790Z,101473.47
2022-12-04T22:07:48.661Z,101472.56
2022-12-04T22:10:19.274Z,101474.97
2022-12-04T22:12:50.696Z,101474.50
2022-12-04T22:15:22.105Z,101473.38
2022-12-04T22:17:52.837Z,101468.44
2022-12-04T22:20:19.762Z,101467.56
2022-12-04T22:22:48.975Z,101469.94
2022-12-04T22:25:21.747Z,101462.22
2022-12-04T22:27:59.132Z,101462.78
2022-12-04T22:30:31.831Z,101463.66
2022-12-04T22:33:07.660Z,101462.00
2022-12-04T22:35:40.871Z,101460.41
2022-12-04T22:38:12.079Z,101462.19
2022-12-04T22:40:43.527Z,101465.59
2022-12-04T22:43:13.305Z,101456.59
2022-12-04T22:45:43.071Z,101454.09
2022-12-04T22:48:13.090Z,101454.88
2022-12-04T22:50:44.779Z,101453.09
2022-12-04T22:53:11.670Z,101463.66
2022-12-04T22:55:42.343Z,101453.59
2022-12-04T22:58:09.766Z,101458.66
2022-12-04T23:00:39.680Z,101458.84
2022-12-04T23:03:12.777Z,101458.13
2022-12-04T23:05:48.603Z,101460.78
2022-12-04T23:08:20.368Z,101457.72
2022-12-04T23:10:58.071Z,101457.66
2022-12-04T23:13:36.296Z,101448.13
2022-12-04T23:16:09.768Z,101440.31
2022-12-04T23:18:43.385Z,101432.22
2022-12-04T23:21:12.352Z,101425.03
2022-12-04T23:23:41.064Z,101431.06
2022-12-04T23:26:16.456Z,101443.31
2022-12-04T23:28:46.912Z,101435.25
2022-12-04T23:31:14.259Z,101437.59
2022-12-04T23:33:41.903Z,101425.41
2022-12-04T23:36:13.660Z,101428.25
2022-12-04T23:38:42.321Z,101424.06
2022-12-04T23:41:18.756Z,101435.84
2022-12-04T23:43:51.372Z,101440.25
2022-12-04T23:46:40.124Z,101443.47
2022-12-04T23:49:11.987Z,101457.97
2022-12-04T23:51:38.892Z,101455.06
2022-12-04T23:54:13.052Z,101450.25
2022-12-04T23:56:43.024Z,101452.63
2022-12-04T23:59:32.016Z,101446.28
